KPSM/PSM METAR and TAF weather

Enter ICAO airport designator
Station Type Date Time Source
KPSM METAR 2019/08/19 06:56 UTC NOAA

KPSM 190656Z 00000KT 3/8SM R16/5000FT FG VV001 21/21 A2993 RMK AO2A SLP137 T02060206


Station Type Date Time Source
KPSM Decoded METAR 2019/08/19 06:56 UTC NOAA

Station name not available
Aug 19, 2019 - 02:56 AM EDT / 2019.08.19 0656 UTC
Wind: Calm:0
Visibility: 3/8 mile(s):0
Sky conditions: obscured
Weather: fog
Temperature: 69.1 F (20.6 C)
Dew Point: 69.1 F (20.6 C)
Relative Humidity: 100%
Pressure (altimeter): 29.93 in. Hg (1013 hPa)
ob: KPSM 190656Z 00000KT 3/8SM R16/5000FT FG VV001 21/21 A2993 RMK AO2A SLP137 T02060206
cycle: 7

Station Type Date Time Source
KPSM TAF 2019/08/19 06:30 UTC NOAA

TAF KPSM 190529Z 1906/2006 VRB04KT 1/2SM FG VV001
FM191400 21007KT P6SM SCT120 BKN250
FM191800 20009KT P6SM SCT120 BKN200
FM200000 26005KT P6SM SKC

Example: see airport list